aviador You're here:

KSBP Decoded Metar

SAN LUIS OBISPO in CA, USA
Report Time2017-03-23 03:56:00
UTC Time2017-03-23 04:18:32
Flight Rules vfr VFR
Wind320° at 12 kt
W.Decomp.*RWY 29: 11.6 kt HW 3.1 kt RCW
RWY 25: 6.9 kt HW 9.8 kt RCW
W.Rank320° ranks 2
Current wind is above 320° avg. (10.8)
Visibility9999 m
Phenomena:N/A
Clouds:N/A
Expected CloudBase > 1,600 ft AGL from Temp-Dew spread
CeilingNone
Temp12°C (ISA -3)
Dew Point08°C (77% RH)
AAT7.2°C
QNH1018 hPa
Density Alt-141 ft
Elevation194 ft
Report Wrong Elevation
Raw Report
KSBP 230356Z AUTO 32012KT 10SM CLR 12/08 A3006=

Extra information for KSBP:More info

Metar Taf Metar & Taf Last 4 Metars F.Rules Stats Wind Profile Meteogram Temp Stats Airport Information Weather charts Add Link Nearby VenuesMetar ALERT Operation Metar Decoded Social comments

AIRNAV info for KSBP